Time;durP1;ratioP1;P1;durP2;ratioP2;P2;SDS_P1;SDS_P2;PMS_P1;PMS_P2;Temp;Humidity;BMP_temperature;BMP_pressure;BME280_temperature;BME280_humidity;BME280_pressure;Samples;Min_cycle;Max_cycle;Signal;HPM_P1;HPM_P2
2022/11/26 00:09:12;;;;;;;10.63;4.97;;;;;;;2.40;100.00;98741.63;18299746;32;20137;-63
2022/11/26 00:19:14;;;;;;;7.20;3.33;;;;;;;2.12;100.00;98761.00;18299422;32;20095;-63
2022/11/26 00:29:17;;;;;;;7.13;2.20;;;;;;;1.95;100.00;98770.28;18285498;32;20070;-63
2022/11/26 00:39:23;;;;;;;3.63;1.80;;;;;;;1.83;100.00;98775.25;18298717;32;20054;-63
2022/11/26 00:49:27;;;;;;;2.77;1.50;;;;;;;1.74;100.00;98773.69;18298123;32;20378;-63
2022/11/26 00:59:30;;;;;;;2.72;1.55;;;;;;;1.69;100.00;98782.25;18297079;32;20065;-63
2022/11/26 01:09:33;;;;;;;3.37;1.90;;;;;;;1.61;100.00;98795.69;18297145;32;20054;-63
2022/11/26 01:19:35;;;;;;;5.63;1.90;;;;;;;1.53;100.00;98812.59;18295652;32;20102;-63
2022/11/26 01:29:38;;;;;;;4.90;1.70;;;;;;;1.43;100.00;98836.03;18296175;32;20382;-63
2022/11/26 01:39:41;;;;;;;2.43;1.30;;;;;;;1.39;100.00;98850.75;18295830;32;20066;-63
2022/11/26 01:50:22;;;;;;;4.90;1.70;;;;;;;1.50;100.00;98876.94;18295248;32;20479;-63
2022/11/26 02:00:24;;;;;;;3.80;1.33;;;;;;;1.51;100.00;98891.94;18294567;32;20102;-63
2022/11/26 02:10:27;;;;;;;4.47;1.70;;;;;;;1.69;100.00;98900.41;18294770;32;20051;-63
2022/11/26 02:20:40;;;;;;;3.73;1.93;;;;;;;1.94;100.00;98926.81;18294322;32;20110;-63
2022/11/26 02:31:19;;;;;;;3.30;1.80;;;;;;;2.14;100.00;98936.97;18298189;32;20058;-63
2022/11/26 02:41:22;;;;;;;3.60;1.63;;;;;;;2.32;100.00;98936.59;18304381;32;20058;-63
2022/11/26 02:51:26;;;;;;;3.67;1.47;;;;;;;2.40;100.00;98936.47;18289539;32;20164;-63
2022/11/26 03:01:41;;;;;;;4.57;2.03;;;;;;;2.43;100.00;98940.63;18303407;32;20375;-63
2022/11/26 03:11:44;;;;;;;4.67;2.60;;;;;;;2.41;100.00;98938.12;18302894;32;20096;-63
2022/11/26 03:21:47;;;;;;;3.70;2.40;;;;;;;2.37;100.00;98927.00;18302318;32;20433;-63
2022/11/26 03:31:49;;;;;;;6.07;2.73;;;;;;;2.29;100.00;98921.75;18302078;32;20073;-63
2022/11/26 03:41:52;;;;;;;3.73;2.30;;;;;;;2.18;100.00;98931.06;18301106;32;20050;-63
2022/11/26 03:51:54;;;;;;;4.93;2.30;;;;;;;2.16;100.00;98924.25;18300590;32;20053;-63
2022/11/26 04:01:57;;;;;;;3.13;1.63;;;;;;;1.92;100.00;98915.50;18300308;32;20070;-63
2022/11/26 04:11:59;;;;;;;4.00;1.93;;;;;;;1.71;100.00;98926.06;18286384;32;20054;-63
2022/11/26 04:22:02;;;;;;;2.73;1.90;;;;;;;1.53;100.00;98929.88;18299577;32;20068;-63
2022/11/26 04:32:04;;;;;;;4.70;1.80;;;;;;;1.43;100.00;98932.00;18284861;32;20395;-63
2022/11/26 04:42:07;;;;;;;6.70;2.23;;;;;;;1.37;100.00;98949.53;18298434;32;20053;-63
2022/11/26 04:52:10;;;;;;;2.97;1.77;;;;;;;1.48;100.00;98933.09;18296882;32;20110;-63
2022/11/26 05:02:12;;;;;;;3.83;1.67;;;;;;;1.29;100.00;98928.25;18297318;32;20489;-63
2022/11/26 05:12:14;;;;;;;2.70;1.30;;;;;;;1.29;100.00;98931.75;18296803;32;20117;-63
2022/11/26 05:22:17;;;;;;;3.43;1.40;;;;;;;1.46;100.00;98959.09;18296413;32;20114;-63
2022/11/26 05:32:19;;;;;;;3.30;1.60;;;;;;;1.43;100.00;98987.97;18295930;32;20336;-63
2022/11/26 05:42:22;;;;;;;5.83;1.83;;;;;;;1.28;100.00;98978.06;18282013;32;20101;-63
2022/11/26 05:52:25;;;;;;;2.87;1.70;;;;;;;1.01;100.00;98990.91;18294732;32;20062;-63
2022/11/26 06:02:28;;;;;;;6.87;2.83;;;;;;;0.87;100.00;98996.97;18294357;32;20042;-63
2022/11/26 06:12:30;;;;;;;4.63;1.83;;;;;;;0.79;100.00;99019.13;18267940;32;20118;-63
2022/11/26 06:22:37;;;;;;;3.23;2.13;;;;;;;0.66;100.00;99017.03;18293972;32;20061;-63
2022/11/26 06:32:40;;;;;;;3.20;1.83;;;;;;;0.54;100.00;99028.22;18293430;32;20453;-63
2022/11/26 06:42:48;;;;;;;2.93;1.70;;;;;;;0.43;100.00;99016.94;18293164;32;20098;-63
2022/11/26 06:52:52;;;;;;;3.73;2.00;;;;;;;0.36;100.00;99034.59;18292429;32;20076;-63
2022/11/26 07:02:55;;;;;;;2.17;1.50;;;;;;;0.27;100.00;99043.59;18278939;32;20054;-63
2022/11/26 07:12:59;;;;;;;2.23;1.77;;;;;;;0.30;100.00;99057.41;18278252;32;20042;-63
2022/11/26 07:23:03;;;;;;;4.27;2.20;;;;;;;0.42;100.00;99071.16;18288401;32;20399;-63
2022/11/26 07:33:06;;;;;;;3.17;2.10;;;;;;;0.42;100.00;99071.16;18301768;32;20073;-63
2022/11/26 07:43:09;;;;;;;4.20;2.17;;;;;;;0.50;100.00;99080.97;18301207;32;20429;-63
2022/11/26 07:53:13;;;;;;;3.13;1.90;;;;;;;0.58;100.00;99104.91;18300965;32;20442;-63
2022/11/26 08:03:16;;;;;;;5.67;2.60;;;;;;;0.78;100.00;99120.47;18300445;32;20354;-63
2022/11/26 08:13:18;;;;;;;3.47;2.43;;;;;;;1.05;100.00;99115.75;18299767;32;20068;-63
2022/11/26 08:23:22;;;;;;;6.20;2.90;;;;;;;1.52;100.00;99122.81;18299660;32;20369;-64
2022/11/26 08:33:25;;;;;;;5.13;3.13;;;;;;;2.02;100.00;99126.81;18298832;32;20058;-63
2022/11/26 08:43:28;;;;;;;5.07;3.47;;;;;;;2.50;100.00;99121.25;18298426;32;20073;-63
2022/11/26 08:53:52;;;;;;;6.20;4.30;;;;;;;2.93;100.00;99131.31;18286323;32;20062;-63
2022/11/26 09:03:58;;;;;;;5.43;4.10;;;;;;;3.47;100.00;99132.81;18297515;32;20105;-63
2022/11/26 09:14:04;;;;;;;5.33;3.80;;;;;;;3.93;100.00;99139.69;18297107;32;20394;-63
2022/11/26 09:24:06;;;;;;;5.27;3.60;;;;;;;4.26;100.00;99136.50;18282866;32;20096;-63
2022/11/26 09:34:10;;;;;;;5.63;4.00;;;;;;;4.51;100.00;99149.47;18282572;32;20073;-63
2022/11/26 09:44:42;;;;;;;7.53;5.30;;;;;;;4.81;100.00;99157.31;18295110;32;20054;-63
2022/11/26 09:54:47;;;;;;;9.87;6.80;;;;;;;5.15;100.00;99159.16;18294821;32;20102;-63
2022/11/26 10:04:50;;;;;;;12.15;7.72;;;;;;;5.40;100.00;99167.56;18294745;32;20073;-63
2022/11/26 10:15:10;;;;;;;11.17;7.27;;;;;;;5.77;100.00;99160.06;18280844;32;20350;-63
2022/11/26 10:25:18;;;;;;;12.40;8.80;;;;;;;6.04;100.00;99143.22;18294032;32;20109;-63
2022/11/26 10:35:24;;;;;;;11.73;8.50;;;;;;;6.21;100.00;99135.62;18293709;32;20062;-63
2022/11/26 10:45:37;;;;;;;18.07;9.93;;;;;;;6.22;100.00;99142.63;18293284;32;20066;-63
2022/11/26 10:55:42;;;;;;;14.07;9.67;;;;;;;6.09;100.00;99135.38;18286599;32;20062;-63
2022/11/26 11:05:45;;;;;;;19.60;11.60;;;;;;;5.84;100.00;99113.59;18303297;32;20095;-63
2022/11/26 11:16:00;;;;;;;15.83;11.20;;;;;;;5.77;100.00;99119.81;18288782;32;20399;-63
2022/11/26 11:26:02;;;;;;;16.50;11.68;;;;;;;6.01;100.00;99117.59;18302463;32;20152;-63
2022/11/26 11:36:14;;;;;;;19.33;10.07;;;;;;;6.17;100.00;99104.81;18301839;32;20100;-63
2022/11/26 11:46:26;;;;;;;14.17;8.77;;;;;;;6.03;100.00;99094.06;18301118;32;20446;-63
2022/11/26 11:56:47;;;;;;;15.10;9.37;;;;;;;6.00;100.00;99074.84;18300620;32;20062;-63
2022/11/26 12:07:10;;;;;;;17.17;8.03;;;;;;;6.35;100.00;99066.59;18286428;32;20054;-63
2022/11/26 12:17:18;;;;;;;15.43;7.47;;;;;;;6.81;100.00;99068.38;18285937;32;20062;-63
2022/11/26 12:27:41;;;;;;;12.53;6.70;;;;;;;7.10;100.00;99071.59;18299502;32;20380;-63
2022/11/26 12:37:49;;;;;;;7.70;5.90;;;;;;;7.29;100.00;99059.09;18284677;32;20418;-63
2022/11/26 12:48:02;;;;;;;6.40;3.63;;;;;;;7.50;100.00;99065.19;18298295;32;20109;-63
2022/11/26 12:58:11;;;;;;;6.60;3.13;;;;;;;7.53;100.00;99064.75;18297522;32;20101;-63
2022/11/26 13:08:28;;;;;;;6.80;3.70;;;;;;;7.67;100.00;99073.59;18297087;32;20457;-63
2022/11/26 13:18:48;;;;;;;6.60;4.17;;;;;;;7.83;100.00;99053.41;18282165;32;20062;-63
2022/11/26 13:29:09;;;;;;;4.57;3.27;;;;;;;7.81;100.00;99045.50;18296147;32;20089;-63
2022/11/26 13:39:14;;;;;;;5.87;3.27;;;;;;;7.63;100.00;99038.19;18269313;32;20076;-63
2022/11/26 13:49:44;;;;;;;6.87;3.40;;;;;;;7.53;100.00;99016.31;18295307;32;20115;-63
2022/11/26 13:59:50;;;;;;;8.10;3.33;;;;;;;7.60;100.00;99007.12;18294556;32;20069;-63
2022/11/26 14:09:55;;;;;;;6.73;4.17;;;;;;;7.78;100.00;99008.25;18280792;32;20128;-63
2022/11/26 14:19:59;;;;;;;11.53;7.13;;;;;;;7.87;100.00;99003.44;18294890;32;20058;-63
2022/11/26 14:30:05;;;;;;;13.83;8.30;;;;;;;7.90;100.00;98995.72;18302292;32;20106;-63
2022/11/26 14:40:22;;;;;;;50.93;22.27;;;;;;;7.86;100.00;98999.91;18304907;32;20072;-63
2022/11/26 14:50:25;;;;;;;10.47;7.53;;;;;;;7.72;100.00;99019.91;18304100;32;20062;-63
2022/11/26 15:00:30;;;;;;;13.93;7.63;;;;;;;7.39;100.00;99029.84;18238835;32;20446;-63
2022/11/26 15:11:05;;;;;;;12.53;7.03;;;;;;;7.08;100.00;99041.37;18238694;32;20113;-62
2022/11/26 15:21:18;;;;;;;15.77;7.53;;;;;;;6.72;100.00;99022.06;18240405;32;20054;-63
2022/11/26 15:31:21;;;;;;;13.03;8.33;;;;;;;6.20;100.00;99013.09;18238943;32;20073;-63
2022/11/26 15:41:25;;;;;;;13.03;6.93;;;;;;;5.65;100.00;99011.41;18236906;32;20089;-63
2022/11/26 15:51:32;;;;;;;13.27;7.37;;;;;;;5.26;100.00;99002.22;18228013;32;20050;-63
2022/11/26 16:01:38;;;;;;;15.27;8.70;;;;;;;4.90;100.00;98985.41;18300776;32;20335;-62
2022/11/26 16:11:59;;;;;;;14.47;8.00;;;;;;;4.50;100.00;98973.72;18286367;32;20106;-63
2022/11/26 16:22:04;;;;;;;10.10;5.53;;;;;;;4.15;100.00;98969.22;18299747;32;20042;-63
2022/11/26 16:32:07;;;;;;;;;;;;;;;3.82;100.00;98974.31;18299451;32;20070;-63
2022/11/26 16:42:20;;;;;;;13.90;9.37;;;;;;;3.53;100.00;98973.44;18298926;32;19945;-62
2022/11/26 16:52:23;;;;;;;15.87;10.20;;;;;;;3.28;100.00;98989.06;18297570;32;20414;-63
2022/11/26 17:02:25;;;;;;;11.27;8.27;;;;;;;3.01;100.00;98973.53;18297578;32;20108;-63
2022/11/26 17:12:28;;;;;;;16.37;8.73;;;;;;;2.76;100.00;98969.59;18283332;32;20052;-63
2022/11/26 17:22:31;;;;;;;10.93;7.27;;;;;;;2.53;100.00;98958.00;18283139;32;20096;-63
2022/11/26 17:32:33;;;;;;;8.90;6.47;;;;;;;2.36;100.00;98973.38;18296047;32;20066;-63
2022/11/26 17:42:36;;;;;;;9.37;5.73;;;;;;;2.19;100.00;98990.59;18295651;32;20049;-63
2022/11/26 17:52:39;;;;;;;9.17;6.33;;;;;;;2.45;100.00;98989.31;18294991;32;20106;-63
2022/11/26 18:02:42;;;;;;;8.47;6.47;;;;;;;2.80;100.00;98994.91;18294779;32;20117;-63
2022/11/26 18:12:46;;;;;;;9.67;7.53;;;;;;;3.09;100.00;99006.53;18294909;32;20059;-63
2022/11/26 18:22:51;;;;;;;12.77;8.83;;;;;;;3.32;100.00;99001.84;18281170;32;20429;-63
2022/11/26 18:32:53;;;;;;;14.63;9.90;;;;;;;3.62;100.00;99011.56;18294026;32;20092;-63
2022/11/26 18:42:56;;;;;;;14.33;10.93;;;;;;;3.79;100.00;99012.16;18293418;32;20426;-63
2022/11/26 18:52:59;;;;;;;15.37;10.53;;;;;;;3.98;100.00;99013.34;18266287;32;20059;-63
2022/11/26 19:03:01;;;;;;;18.80;12.40;;;;;;;4.08;100.00;99021.84;18291514;32;20054;-63
2022/11/26 19:13:04;;;;;;;16.70;10.13;;;;;;;4.19;100.00;99007.94;18296309;32;20489;-63
2022/11/26 19:23:07;;;;;;;13.40;9.97;;;;;;;4.26;100.00;99002.59;18302558;32;20390;-63
2022/11/26 19:33:10;;;;;;;13.73;8.70;;;;;;;4.29;100.00;99007.59;18301875;32;20395;-63
2022/11/26 19:43:13;;;;;;;15.30;10.50;;;;;;;4.27;100.00;99001.59;18301624;32;20054;-63
2022/11/26 19:53:16;;;;;;;15.30;10.53;;;;;;;4.31;100.00;98996.69;18300692;32;20066;-63
2022/11/26 20:03:19;;;;;;;17.27;11.03;;;;;;;4.37;100.00;98996.72;18300669;32;20361;-63
2022/11/26 20:13:21;;;;;;;19.70;12.00;;;;;;;4.38;100.00;99000.22;18299917;32;20387;-63
2022/11/26 20:23:25;;;;;;;17.93;11.43;;;;;;;4.44;100.00;98995.91;18299222;32;20117;-63
2022/11/26 20:33:28;;;;;;;20.47;12.63;;;;;;;4.48;100.00;99003.37;18298922;32;20365;-63
2022/11/26 20:43:33;;;;;;;20.37;11.13;;;;;;;4.46;100.00;99000.06;18299060;32;20090;-63
2022/11/26 20:53:37;;;;;;;20.52;10.60;;;;;;;4.53;100.00;98973.31;18284167;32;20054;-63
2022/11/26 21:03:40;;;;;;;19.33;11.03;;;;;;;4.58;100.00;98969.00;18284054;32;20076;-63
2022/11/26 21:13:43;;;;;;;20.13;11.33;;;;;;;4.61;100.00;98945.53;18297498;32;20149;-63
2022/11/26 21:23:46;;;;;;;22.20;12.97;;;;;;;4.64;100.00;98932.56;18296521;32;20109;-63
2022/11/26 21:34:00;;;;;;;19.83;12.47;;;;;;;4.63;100.00;98932.75;18282013;32;20117;-63
2022/11/26 21:44:03;;;;;;;19.10;12.03;;;;;;;4.56;100.00;98933.56;18295851;32;20066;-63
2022/11/26 21:54:08;;;;;;;18.13;11.60;;;;;;;4.54;100.00;98948.19;18294756;32;20050;-63
2022/11/26 22:04:14;;;;;;;18.70;12.13;;;;;;;4.56;100.00;98959.50;18294967;32;20065;-63
2022/11/26 22:14:17;;;;;;;21.83;13.00;;;;;;;4.54;100.00;98965.06;18294336;32;20073;-63
2022/11/26 22:24:20;;;;;;;17.67;11.17;;;;;;;4.58;100.00;98978.91;18280610;32;20062;-63
2022/11/26 22:34:25;;;;;;;19.77;12.67;;;;;;;4.59;100.00;98983.22;18279858;32;20065;-63
2022/11/26 22:44:28;;;;;;;18.20;10.90;;;;;;;4.54;100.00;98974.97;18294177;32;20054;-63
2022/11/26 22:54:31;;;;;;;17.70;11.27;;;;;;;4.49;100.00;98988.13;18303590;32;20105;-63
2022/11/26 23:04:34;;;;;;;15.23;10.20;;;;;;;4.47;100.00;98982.97;18302559;32;20438;-63
2022/11/26 23:14:37;;;;;;;16.57;10.10;;;;;;;4.40;100.00;98977.59;18303063;32;20050;-63
2022/11/26 23:24:39;;;;;;;13.97;10.33;;;;;;;4.33;100.00;98959.81;18302442;32;20085;-63
2022/11/26 23:34:42;;;;;;;17.90;11.23;;;;;;;4.26;100.00;98933.00;18302193;32;20073;-63
2022/11/26 23:44:45;;;;;;;14.07;9.23;;;;;;;4.20;100.00;98921.22;18287566;32;20089;-63
2022/11/26 23:54:47;;;;;;;10.73;7.87;;;;;;;4.10;100.00;98898.50;18300864;32;20055;-63
